Time;durP1;ratioP1;P1;durP2;ratioP2;P2;SDS_P1;SDS_P2;PMS_P1;PMS_P2;Temp;Humidity;BMP_temperature;BMP_pressure;BME280_temperature;BME280_humidity;BME280_pressure;Samples;Min_cycle;Max_cycle;Signal;HPM_P1;HPM_P2
2023/02/16 00:01:43;;;;;;;174.98;61.65;;;;;;;;;;5120108;28;20210;-73
2023/02/16 00:04:19;;;;;;;175.13;59.58;;;;;;;;;;5120168;28;20541;-72
2023/02/16 00:06:48;;;;;;;155.82;57.92;;;;;;;;;;5115222;28;20247;-73
2023/02/16 00:09:27;;;;;;;164.80;60.35;;;;;;;;;;5119145;28;20244;-73
2023/02/16 00:15:16;;;;;;;211.90;75.65;;;;;;;;;;5118264;28;20228;-73
2023/02/16 00:17:45;;;;;;;175.85;63.53;;;;;;;;;;5120719;28;20280;-73
2023/02/16 00:20:15;;;;;;;175.77;61.97;;;;;;;;;;5120286;28;20551;-73
2023/02/16 00:22:44;;;;;;;208.32;72.63;;;;;;;;;;5120471;28;20226;-73
2023/02/16 00:25:13;;;;;;;203.88;73.60;;;;;;;;;;5119732;28;20227;-73
2023/02/16 00:27:43;;;;;;;155.27;59.17;;;;;;;;;;5120444;28;20215;-73
2023/02/16 00:30:15;;;;;;;151.30;55.65;;;;;;;;;;5120103;28;20472;-73
2023/02/16 00:32:43;;;;;;;150.32;57.80;;;;;;;;;;5120103;28;20218;-73
2023/02/16 00:35:18;;;;;;;162.02;57.92;;;;;;;;;;5120352;28;20274;-73
2023/02/16 00:37:47;;;;;;;173.60;61.80;;;;;;;;;;5119933;28;20238;-73
2023/02/16 00:40:17;;;;;;;170.30;60.65;;;;;;;;;;5118986;28;20505;-73
2023/02/16 00:42:46;;;;;;;167.57;59.35;;;;;;;;;;5119789;28;20494;-73
2023/02/16 00:45:18;;;;;;;170.65;59.58;;;;;;;;;;5119676;28;20266;-73
2023/02/16 00:47:48;;;;;;;154.30;58.75;;;;;;;;;;5119438;28;20226;-72
2023/02/16 00:50:16;;;;;;;152.25;56.33;;;;;;;;;;5119822;28;20220;-75
2023/02/16 00:52:50;;;;;;;149.40;56.63;;;;;;;;;;5119647;28;20224;-72
2023/02/16 00:58:28;;;;;;;151.27;59.17;;;;;;;;;;5117195;28;20586;-72
2023/02/16 01:00:56;;;;;;;209.85;74.07;;;;;;;;;;5118892;28;20224;-74
2023/02/16 01:03:29;;;;;;;147.15;54.17;;;;;;;;;;5119411;28;20209;-74
2023/02/16 01:11:39;;;;;;;168.38;60.35;;;;;;;;;;5119664;28;20214;-73
2023/02/16 01:14:20;;;;;;;155.52;57.42;;;;;;;;;;5119128;28;20260;-73
2023/02/16 01:17:00;;;;;;;215.73;79.80;;;;;;;;;;5118987;28;20211;-73
2023/02/16 01:19:38;;;;;;;145.77;57.38;;;;;;;;;;5120244;28;20218;-73
2023/02/16 01:22:33;;;;;;;84.00;32.92;;;;;;;;;;5119183;28;20219;-74
2023/02/16 01:25:08;;;;;;;84.63;34.03;;;;;;;;;;5118602;28;20244;-73
2023/02/16 01:27:54;;;;;;;202.43;74.32;;;;;;;;;;5119159;28;20205;-73
2023/02/16 01:30:31;;;;;;;148.15;58.47;;;;;;;;;;5119005;28;20224;-73
2023/02/16 01:33:00;;;;;;;149.25;58.22;;;;;;;;;;5118736;28;20226;-73
2023/02/16 01:35:33;;;;;;;132.43;48.20;;;;;;;;;;5118659;28;20212;-73
2023/02/16 01:38:02;;;;;;;165.57;59.00;;;;;;;;;;5118755;28;20311;-73
2023/02/16 01:40:40;;;;;;;83.55;31.15;;;;;;;;;;5118372;28;20335;-73
2023/02/16 01:43:17;;;;;;;195.73;71.78;;;;;;;;;;5118749;28;20229;-73
2023/02/16 01:48:45;;;;;;;157.35;55.25;;;;;;;;;;5115214;28;20234;-73
2023/02/16 01:51:20;;;;;;;209.18;76.32;;;;;;;;;;5119078;28;20542;-73
2023/02/16 01:53:56;;;;;;;171.25;62.15;;;;;;;;;;5118559;28;20581;-74
2023/02/16 01:56:31;;;;;;;157.25;57.40;;;;;;;;;;5118585;28;20223;-74
2023/02/16 01:59:23;;;;;;;160.90;58.45;;;;;;;;;;5117637;28;20612;-71
2023/02/16 02:01:54;;;;;;;147.35;52.33;;;;;;;;;;5118145;28;20223;-73
2023/02/16 02:07:43;;;;;;;152.57;59.15;;;;;;;;;;5111989;28;20209;-71
2023/02/16 02:13:25;;;;;;;202.07;73.97;;;;;;;;;;5118298;28;20613;-73
2023/02/16 02:15:59;;;;;;;170.90;61.28;;;;;;;;;;5118441;28;20221;-73
2023/02/16 02:18:36;;;;;;;205.63;73.10;;;;;;;;;;5117902;28;20354;-72
2023/02/16 02:24:12;;;;;;;166.27;64.70;;;;;;;;;;5117730;28;20205;-72
2023/02/16 02:27:03;;;;;;;228.43;80.95;;;;;;;;;;5117289;28;20632;-73
2023/02/16 02:29:54;;;;;;;172.55;68.25;;;;;;;;;;5117512;28;20237;-74
2023/02/16 02:32:27;;;;;;;233.38;81.47;;;;;;;;;;5093355;28;20287;-73
2023/02/16 02:35:04;;;;;;;189.27;67.80;;;;;;;;;;5118005;28;20210;-72
2023/02/16 02:37:40;;;;;;;207.02;66.82;;;;;;;;;;5117548;28;20345;-74
2023/02/16 02:40:12;;;;;;;145.98;53.72;;;;;;;;;;5118047;28;20222;-73
2023/02/16 02:42:49;;;;;;;177.93;60.90;;;;;;;;;;5117460;28;20577;-73
2023/02/16 02:45:27;;;;;;;173.20;61.55;;;;;;;;;;5117572;28;20630;-73
2023/02/16 02:47:57;;;;;;;166.68;59.58;;;;;;;;;;5117792;28;20284;-72
2023/02/16 02:53:43;;;;;;;163.80;59.17;;;;;;;;;;5074602;28;20233;-73
2023/02/16 03:02:02;;;;;;;164.10;57.75;;;;;;;;;;5054408;28;20263;-72
2023/02/16 03:04:31;;;;;;;81.70;30.45;;;;;;;;;;5103228;28;20252;-74
2023/02/16 03:06:59;;;;;;;150.25;58.33;;;;;;;;;;5117465;28;20253;-74
2023/02/16 03:09:34;;;;;;;146.98;55.75;;;;;;;;;;5117165;28;20218;-74
2023/02/16 03:15:03;;;;;;;148.57;53.22;;;;;;;;;;5117291;28;20229;-73
2023/02/16 03:31:38;;;;;;;169.60;60.05;;;;;;;;;;5117153;28;20256;-72
2023/02/16 03:34:09;;;;;;;201.45;72.63;;;;;;;;;;5116156;28;20286;-73
2023/02/16 03:36:42;;;;;;;151.13;57.55;;;;;;;;;;5116695;28;20462;-75
2023/02/16 03:39:17;;;;;;;200.98;72.20;;;;;;;;;;5117062;28;20216;-73
2023/02/16 03:41:50;;;;;;;200.52;72.53;;;;;;;;;;5117057;28;20580;-73
2023/02/16 03:44:25;;;;;;;158.52;59.63;;;;;;;;;;5116449;28;20216;-72
2023/02/16 03:46:54;;;;;;;153.63;58.20;;;;;;;;;;5116867;28;20569;-73
2023/02/16 03:49:24;;;;;;;147.32;56.13;;;;;;;;;;5116689;28;20638;-72
2023/02/16 03:51:52;;;;;;;256.63;73.32;;;;;;;;;;5116889;28;20217;-73
2023/02/16 03:54:20;;;;;;;154.43;58.85;;;;;;;;;;5116499;28;20225;-73
2023/02/16 03:56:48;;;;;;;150.30;57.35;;;;;;;;;;5116176;28;20477;-73
2023/02/16 03:59:25;;;;;;;147.30;56.17;;;;;;;;;;5116747;28;20223;-74
2023/02/16 04:01:57;;;;;;;149.02;53.40;;;;;;;;;;5116154;28;20495;-74
2023/02/16 04:04:30;;;;;;;150.52;58.47;;;;;;;;;;5116821;28;20240;-74
2023/02/16 04:07:01;;;;;;;148.52;56.92;;;;;;;;;;5116101;28;20237;-74
2023/02/16 04:09:34;;;;;;;195.68;68.60;;;;;;;;;;5116294;28;20601;-74
2023/02/16 04:14:47;;;;;;;202.20;72.38;;;;;;;;;;5116326;28;20209;-73
2023/02/16 04:17:28;;;;;;;140.70;54.47;;;;;;;;;;5116203;28;20320;-73
2023/02/16 04:19:56;;;;;;;149.38;55.45;;;;;;;;;;5116711;28;20233;-74
2023/02/16 04:22:26;;;;;;;199.13;72.32;;;;;;;;;;5119293;28;20224;-73
2023/02/16 04:24:54;;;;;;;167.65;58.53;;;;;;;;;;5120185;28;20233;-74
2023/02/16 04:27:23;;;;;;;200.50;72.70;;;;;;;;;;5119810;28;20652;-73
2023/02/16 04:29:53;;;;;;;153.73;56.90;;;;;;;;;;5120612;28;20229;-73
2023/02/16 04:32:22;;;;;;;150.77;53.13;;;;;;;;;;5119698;28;20217;-74
2023/02/16 04:34:49;;;;;;;199.43;72.85;;;;;;;;;;5119444;28;20246;-73
2023/02/16 04:37:20;;;;;;;159.82;56.53;;;;;;;;;;5119612;28;20489;-74
2023/02/16 04:39:48;;;;;;;176.98;63.85;;;;;;;;;;5119857;28;20216;-73
2023/02/16 04:42:16;;;;;;;169.75;59.72;;;;;;;;;;5119835;28;20223;-73
2023/02/16 04:44:44;;;;;;;159.27;60.53;;;;;;;;;;5119458;28;20212;-73
2023/02/16 04:47:12;;;;;;;153.02;58.03;;;;;;;;;;5120587;28;20215;-74
2023/02/16 04:49:41;;;;;;;159.20;57.65;;;;;;;;;;5119122;28;20557;-74
2023/02/16 04:52:09;;;;;;;174.93;61.78;;;;;;;;;;5119691;28;20239;-74
2023/02/16 04:54:37;;;;;;;171.73;62.03;;;;;;;;;;5119261;28;20245;-74
2023/02/16 04:57:05;;;;;;;172.75;59.25;;;;;;;;;;5119007;28;20222;-73
2023/02/16 04:59:33;;;;;;;175.52;62.65;;;;;;;;;;5119918;28;20232;-74
2023/02/16 05:02:01;;;;;;;165.35;59.60;;;;;;;;;;5116208;28;20224;-73
2023/02/16 05:04:41;;;;;;;151.90;57.38;;;;;;;;;;5119860;28;20244;-73
2023/02/16 05:07:10;;;;;;;151.65;58.30;;;;;;;;;;5115958;28;20483;-73
2023/02/16 05:09:38;;;;;;;149.93;54.05;;;;;;;;;;5098281;28;20236;-73
2023/02/16 05:14:56;;;;;;;149.75;53.10;;;;;;;;;;5099355;28;20316;-73
2023/02/16 05:17:25;;;;;;;168.25;59.40;;;;;;;;;;5098756;28;20306;-73
2023/02/16 05:19:53;;;;;;;202.68;71.28;;;;;;;;;;5107469;28;20243;-73
2023/02/16 05:22:22;;;;;;;147.10;52.47;;;;;;;;;;5118345;28;20535;-74
2023/02/16 05:24:50;;;;;;;183.15;62.22;;;;;;;;;;5119226;28;20222;-73
2023/02/16 05:27:20;;;;;;;174.13;61.75;;;;;;;;;;5119006;28;20240;-73
2023/02/16 05:29:48;;;;;;;149.63;54.40;;;;;;;;;;5118514;28;20271;-72
2023/02/16 05:32:19;;;;;;;167.35;60.40;;;;;;;;;;5117558;28;20277;-74
2023/02/16 05:34:46;;;;;;;154.82;56.53;;;;;;;;;;5117785;28;20224;-74
2023/02/16 05:37:14;;;;;;;150.18;57.15;;;;;;;;;;5118666;28;20206;-74
2023/02/16 05:39:46;;;;;;;204.18;77.18;;;;;;;;;;5117410;28;20218;-73
2023/02/16 05:42:14;;;;;;;204.65;73.57;;;;;;;;;;5117583;28;20227;-74
2023/02/16 05:44:42;;;;;;;148.70;55.90;;;;;;;;;;5113142;28;20210;-74
2023/02/16 05:47:10;;;;;;;211.40;74.97;;;;;;;;;;5118014;28;20644;-74
2023/02/16 05:49:38;;;;;;;150.38;57.28;;;;;;;;;;5105512;28;20213;-73
2023/02/16 05:52:06;;;;;;;170.32;60.63;;;;;;;;;;5097781;28;20472;-74
2023/02/16 05:54:35;;;;;;;146.55;55.60;;;;;;;;;;5098120;28;20229;-73
2023/02/16 05:57:04;;;;;;;204.23;74.82;;;;;;;;;;5096793;28;20217;-74
2023/02/16 05:59:32;;;;;;;209.93;74.70;;;;;;;;;;5096637;28;20222;-74
2023/02/16 06:02:00;;;;;;;204.95;70.50;;;;;;;;;;5097190;28;20217;-74
2023/02/16 06:04:27;;;;;;;150.50;57.55;;;;;;;;;;5096348;28;20224;-73
2023/02/16 06:07:00;;;;;;;150.25;54.97;;;;;;;;;;5097983;28;20239;-73
2023/02/16 06:09:30;;;;;;;150.55;58.25;;;;;;;;;;5125963;27;20292;-74
2023/02/16 06:11:58;;;;;;;89.45;32.38;;;;;;;;;;5137890;27;20286;-73
2023/02/16 06:14:28;;;;;;;203.55;74.03;;;;;;;;;;5134946;27;20224;-74
2023/02/16 06:16:57;;;;;;;201.95;73.72;;;;;;;;;;5116313;28;20257;-74
2023/02/16 06:19:25;;;;;;;206.90;75.95;;;;;;;;;;5095137;28;20226;-73
2023/02/16 06:21:52;;;;;;;158.77;57.47;;;;;;;;;;5095053;28;20228;-74
2023/02/16 06:24:21;;;;;;;203.13;74.90;;;;;;;;;;5105476;28;20213;-72
2023/02/16 06:26:49;;;;;;;153.38;54.40;;;;;;;;;;5114620;28;20230;-74
2023/02/16 06:29:16;;;;;;;164.82;58.88;;;;;;;;;;5110422;28;20737;-71
2023/02/16 06:31:47;;;;;;;174.05;64.07;;;;;;;;;;5094237;28;20224;-72
2023/02/16 06:34:15;;;;;;;87.28;35.33;;;;;;;;;;5096370;28;20209;-74
2023/02/16 06:36:42;;;;;;;180.57;65.50;;;;;;;;;;5100188;28;20210;-74
2023/02/16 06:39:12;;;;;;;175.18;65.05;;;;;;;;;;5092629;28;20240;-74
2023/02/16 06:41:40;;;;;;;149.48;58.10;;;;;;;;;;5093219;28;20262;-74
2023/02/16 06:44:08;;;;;;;206.90;73.20;;;;;;;;;;5094164;28;20226;-74
2023/02/16 06:46:36;;;;;;;158.93;61.65;;;;;;;;;;5093652;28;20273;-73
2023/02/16 06:49:05;;;;;;;157.15;62.08;;;;;;;;;;5093925;28;20222;-74
2023/02/16 06:51:36;;;;;;;184.13;66.60;;;;;;;;;;5093956;28;20215;-74
2023/02/16 06:54:05;;;;;;;161.85;64.22;;;;;;;;;;5111154;28;20302;-74
2023/02/16 06:56:35;;;;;;;173.75;64.55;;;;;;;;;;5113722;28;20248;-74
2023/02/16 06:59:11;;;;;;;151.43;57.25;;;;;;;;;;5113235;28;20767;-74
2023/02/16 07:01:40;;;;;;;178.00;68.40;;;;;;;;;;5112158;28;20265;-74
2023/02/16 07:04:09;;;;;;;153.02;57.67;;;;;;;;;;5114223;28;20221;-74
2023/02/16 07:06:40;;;;;;;160.18;58.20;;;;;;;;;;5112903;28;20233;-74
2023/02/16 07:09:09;;;;;;;175.02;61.78;;;;;;;;;;5108485;28;20549;-74
2023/02/16 07:11:37;;;;;;;213.88;77.78;;;;;;;;;;5103440;28;20502;-74
2023/02/16 07:14:07;;;;;;;157.52;61.60;;;;;;;;;;5113158;28;20304;-74
2023/02/16 07:16:35;;;;;;;152.63;56.50;;;;;;;;;;5094833;28;20638;-75
2023/02/16 07:19:04;;;;;;;205.50;71.75;;;;;;;;;;5093766;28;20287;-73
2023/02/16 07:21:34;;;;;;;223.93;80.03;;;;;;;;;;5093876;28;20218;-72
2023/02/16 07:24:02;;;;;;;151.60;56.45;;;;;;;;;;5094140;28;20211;-74
2023/02/16 07:26:30;;;;;;;171.05;62.30;;;;;;;;;;5093118;28;20332;-74
2023/02/16 07:28:57;;;;;;;186.85;66.55;;;;;;;;;;5111256;28;20224;-73
2023/02/16 07:31:32;;;;;;;178.55;65.38;;;;;;;;;;5114221;28;20226;-72
2023/02/16 07:34:01;;;;;;;180.18;66.00;;;;;;;;;;5114377;28;20220;-73
2023/02/16 07:36:28;;;;;;;207.45;75.30;;;;;;;;;;5114873;28;20206;-73
2023/02/16 07:38:58;;;;;;;169.70;62.20;;;;;;;;;;5115557;28;20225;-74
2023/02/16 07:41:27;;;;;;;169.77;62.50;;;;;;;;;;5110093;28;20207;-74
2023/02/16 07:43:56;;;;;;;157.10;63.42;;;;;;;;;;5099115;28;20208;-74
2023/02/16 07:46:26;;;;;;;218.98;78.95;;;;;;;;;;5103313;28;20235;-74
2023/02/16 07:48:56;;;;;;;174.30;64.32;;;;;;;;;;5094061;28;20218;-74
2023/02/16 07:51:24;;;;;;;164.85;64.50;;;;;;;;;;5094527;28;20210;-74
2023/02/16 07:53:58;;;;;;;215.25;76.53;;;;;;;;;;5094188;28;20620;-74
2023/02/16 07:56:30;;;;;;;152.93;60.20;;;;;;;;;;5105491;28;20294;-74
2023/02/16 07:59:01;;;;;;;228.77;80.43;;;;;;;;;;5120144;27;20625;-74
2023/02/16 08:01:31;;;;;;;188.32;68.18;;;;;;;;;;5139250;27;20210;-73
2023/02/16 08:04:12;;;;;;;167.43;65.72;;;;;;;;;;5127413;27;20217;-73
2023/02/16 08:06:42;;;;;;;167.77;63.35;;;;;;;;;;5096899;28;20292;-72
2023/02/16 08:09:10;;;;;;;166.43;63.88;;;;;;;;;;5103477;28;20206;-73
2023/02/16 08:11:40;;;;;;;224.82;80.53;;;;;;;;;;5105893;27;20219;-73
2023/02/16 08:14:11;;;;;;;182.32;64.85;;;;;;;;;;5096995;28;20218;-73
2023/02/16 08:16:40;;;;;;;172.48;61.88;;;;;;;;;;5112588;27;20221;-73
2023/02/16 08:19:12;;;;;;;190.32;71.47;;;;;;;;;;5119417;27;20270;-72
2023/02/16 08:21:40;;;;;;;167.13;64.13;;;;;;;;;;5118004;28;20290;-74
2023/02/16 08:24:13;;;;;;;235.57;89.47;;;;;;;;;;5101769;28;20306;-73
2023/02/16 08:26:54;;;;;;;232.38;81.03;;;;;;;;;;5112672;28;20245;-73
2023/02/16 08:29:25;;;;;;;224.40;76.70;;;;;;;;;;5119038;28;20218;-73
2023/02/16 08:32:06;;;;;;;217.60;75.45;;;;;;;;;;5117784;28;20614;-72
2023/02/16 08:34:37;;;;;;;182.32;61.72;;;;;;;;;;5117094;28;20215;-72
2023/02/16 08:37:06;;;;;;;244.02;84.57;;;;;;;;;;5104994;28;20214;-73
2023/02/16 08:39:35;;;;;;;173.70;66.50;;;;;;;;;;5117450;28;20242;-72
2023/02/16 08:42:08;;;;;;;187.43;67.47;;;;;;;;;;5116245;28;20214;-72
2023/02/16 08:44:36;;;;;;;187.25;64.53;;;;;;;;;;5102925;27;20730;-72
2023/02/16 08:47:04;;;;;;;194.80;69.22;;;;;;;;;;5122754;27;20231;-71
2023/02/16 08:49:32;;;;;;;236.40;87.03;;;;;;;;;;5115995;27;20216;-74
2023/02/16 08:52:00;;;;;;;198.05;68.03;;;;;;;;;;5119503;27;20223;-74
2023/02/16 08:54:29;;;;;;;235.73;82.45;;;;;;;;;;5128971;27;20226;-73
2023/02/16 08:56:57;;;;;;;178.63;66.03;;;;;;;;;;5105492;28;20235;-74
2023/02/16 08:59:31;;;;;;;240.77;82.40;;;;;;;;;;5123249;27;20215;-73
2023/02/16 09:02:05;;;;;;;242.02;81.35;;;;;;;;;;5120157;27;20275;-74
2023/02/16 09:04:34;;;;;;;167.90;64.97;;;;;;;;;;5113764;27;20265;-74
2023/02/16 09:07:02;;;;;;;234.75;80.57;;;;;;;;;;5118165;27;20314;-74
2023/02/16 09:09:30;;;;;;;160.48;61.33;;;;;;;;;;5122866;27;20585;-74
2023/02/16 09:12:34;;;;;;;168.68;58.53;;;;;;;;;;5113258;27;20226;-74
2023/02/16 09:15:05;;;;;;;237.32;83.03;;;;;;;;;;5097344;28;20211;-73
2023/02/16 09:17:34;;;;;;;175.25;67.75;;;;;;;;;;5097186;28;20215;-74
2023/02/16 09:20:03;;;;;;;191.95;66.18;;;;;;;;;;5137651;27;20491;-72
2023/02/16 09:22:35;;;;;;;244.07;80.97;;;;;;;;;;5104011;27;20220;-74
2023/02/16 09:25:06;;;;;;;175.70;65.93;;;;;;;;;;5102289;28;20514;-74
2023/02/16 09:27:35;;;;;;;190.35;70.50;;;;;;;;;;5096922;28;20606;-74
2023/02/16 09:33:03;;;;;;;207.68;71.82;;;;;;;;;;5116484;28;20302;-74
2023/02/16 09:35:34;;;;;;;172.95;62.60;;;;;;;;;;5103274;28;20471;-74
2023/02/16 09:38:03;;;;;;;230.77;79.72;;;;;;;;;;5111854;28;20232;-75
2023/02/16 09:40:32;;;;;;;256.30;84.50;;;;;;;;;;5108816;28;20575;-74
2023/02/16 09:43:10;;;;;;;183.05;67.35;;;;;;;;;;5105994;27;20415;-74
2023/02/16 09:48:38;;;;;;;258.92;90.32;;;;;;;;;;5119082;27;20231;-75
2023/02/16 09:51:15;;;;;;;208.13;71.68;;;;;;;;;;5128986;27;20282;-73
2023/02/16 09:53:45;;;;;;;264.85;93.65;;;;;;;;;;5113396;27;20746;-73
2023/02/16 10:02:04;;;;;;;257.88;91.05;;;;;;;;;;5105985;27;20261;-74
2023/02/16 10:04:46;;;;;;;271.50;97.43;;;;;;;;;;5100813;28;20615;-73
2023/02/16 10:07:34;;;;;;;255.38;87.10;;;;;;;;;;5111053;28;20727;-74
2023/02/16 10:10:12;;;;;;;238.07;80.82;;;;;;;;;;5114667;28;20249;-74
2023/02/16 10:15:41;;;;;;;186.50;71.50;;;;;;;;;;5100460;28;20473;-74
2023/02/16 10:18:37;;;;;;;250.73;84.15;;;;;;;;;;5112672;28;20708;-72
2023/02/16 10:21:53;;;;;;;229.82;75.13;;;;;;;;;;5110236;28;20755;-74
2023/02/16 10:24:22;;;;;;;247.40;82.72;;;;;;;;;;5112964;27;20207;-74
2023/02/16 10:26:57;;;;;;;251.20;82.43;;;;;;;;;;5112277;28;20228;-74
2023/02/16 10:29:38;;;;;;;184.50;65.20;;;;;;;;;;5115544;28;20653;-74
2023/02/16 10:35:16;;;;;;;182.82;69.28;;;;;;;;;;5110586;28;20217;-72
2023/02/16 10:38:03;;;;;;;246.90;83.10;;;;;;;;;;5113762;28;20217;-72
2023/02/16 10:40:38;;;;;;;260.48;84.95;;;;;;;;;;5047394;28;20214;-72
2023/02/16 10:43:14;;;;;;;253.60;83.28;;;;;;;;;;5108488;28;20568;-73
2023/02/16 10:45:50;;;;;;;254.90;84.60;;;;;;;;;;5113641;28;20219;-73
2023/02/16 10:48:46;;;;;;;260.42;90.57;;;;;;;;;;5110281;28;20231;-73
2023/02/16 10:54:19;;;;;;;178.57;64.70;;;;;;;;;;5103605;28;20219;-74
2023/02/16 11:00:12;;;;;;;277.35;89.30;;;;;;;;;;5091601;28;20588;-75
2023/02/16 11:03:07;;;;;;;265.95;88.75;;;;;;;;;;5097996;28;20280;-74
2023/02/16 11:08:52;;;;;;;262.60;86.22;;;;;;;;;;5114329;28;20522;-74
2023/02/16 11:17:12;;;;;;;248.88;84.95;;;;;;;;;;5103250;28;20243;-73
2023/02/16 11:25:39;;;;;;;259.27;86.15;;;;;;;;;;5102175;28;20311;-75
2023/02/16 11:28:14;;;;;;;260.83;85.97;;;;;;;;;;5115381;28;20305;-75
2023/02/16 11:31:02;;;;;;;269.25;91.18;;;;;;;;;;5117113;28;20302;-75
2023/02/16 11:34:04;;;;;;;256.38;81.45;;;;;;;;;;5122769;27;20486;-74
2023/02/16 11:36:47;;;;;;;260.08;83.15;;;;;;;;;;5111621;28;20513;-73
2023/02/16 11:39:18;;;;;;;262.35;85.65;;;;;;;;;;5121172;28;20211;-73
2023/02/16 11:41:49;;;;;;;269.67;85.10;;;;;;;;;;5118716;28;20665;-73
2023/02/16 11:44:23;;;;;;;189.90;67.07;;;;;;;;;;5118942;28;20221;-73
2023/02/16 11:46:57;;;;;;;260.08;87.00;;;;;;;;;;5118365;28;20279;-74
2023/02/16 11:49:32;;;;;;;233.55;67.20;;;;;;;;;;5118380;28;20351;-73
2023/02/16 11:52:21;;;;;;;184.73;70.20;;;;;;;;;;5112867;28;20300;-72
2023/02/16 11:54:57;;;;;;;269.80;91.50;;;;;;;;;;5111314;28;20239;-73
2023/02/16 11:57:28;;;;;;;274.83;89.93;;;;;;;;;;5106580;28;20205;-73
2023/02/16 12:00:01;;;;;;;199.18;68.47;;;;;;;;;;5117423;28;20224;-73
2023/02/16 12:02:47;;;;;;;251.00;81.28;;;;;;;;;;5120131;27;20421;-73
2023/02/16 12:05:30;;;;;;;254.82;83.13;;;;;;;;;;5111676;28;20216;-73
2023/02/16 12:08:20;;;;;;;260.60;85.20;;;;;;;;;;5114917;27;20313;-73
2023/02/16 12:10:55;;;;;;;259.98;85.93;;;;;;;;;;5118107;28;20208;-73
2023/02/16 12:13:34;;;;;;;284.98;96.90;;;;;;;;;;5117240;28;20273;-74
2023/02/16 12:16:18;;;;;;;277.25;88.63;;;;;;;;;;5129637;27;20225;-74
2023/02/16 12:19:07;;;;;;;;;;;;;;;;;;;;;
2023/02/16 12:21:56;;;;;;;270.75;92.20;;;;;;;;;;5114728;28;20233;-74
2023/02/16 12:24:55;;;;;;;262.35;83.45;;;;;;;;;;5115225;27;20390;-74
2023/02/16 12:27:47;;;;;;;286.65;97.97;;;;;;;;;;5117995;28;20650;-74
2023/02/16 12:30:26;;;;;;;256.45;81.45;;;;;;;;;;5109814;27;20314;-73
2023/02/16 12:33:05;;;;;;;268.33;88.35;;;;;;;;;;5113281;28;20280;-73
2023/02/16 12:35:48;;;;;;;268.40;89.05;;;;;;;;;;5119472;28;20707;-74
2023/02/16 12:38:24;;;;;;;189.70;65.90;;;;;;;;;;5108108;28;20224;-74
2023/02/16 12:41:17;;;;;;;260.88;89.93;;;;;;;;;;5114651;28;20301;-74
2023/02/16 12:43:54;;;;;;;193.77;68.60;;;;;;;;;;5122975;27;20220;-74
2023/02/16 12:46:25;;;;;;;194.05;68.93;;;;;;;;;;5116306;28;20208;-73
2023/02/16 12:49:04;;;;;;;261.92;83.70;;;;;;;;;;5121480;27;20586;-74
2023/02/16 12:51:49;;;;;;;281.25;90.50;;;;;;;;;;5119444;27;20317;-74
2023/02/16 12:54:36;;;;;;;274.17;89.82;;;;;;;;;;5114902;27;20217;-75
2023/02/16 12:57:40;;;;;;;190.32;65.60;;;;;;;;;;5114386;28;20210;-74
2023/02/16 13:12:39;;;;;;;270.45;89.10;;;;;;;;;;5110170;28;20203;-74
2023/02/16 13:18:37;;;;;;;188.82;66.53;;;;;;;;;;5110337;27;20797;-73
2023/02/16 13:21:38;;;;;;;267.83;90.75;;;;;;;;;;5117292;28;20208;-74
2023/02/16 13:24:23;;;;;;;277.45;94.00;;;;;;;;;;5118073;28;20220;-73
2023/02/16 13:33:02;;;;;;;254.38;83.28;;;;;;;;;;5111187;27;20634;-74
2023/02/16 13:35:59;;;;;;;199.98;69.90;;;;;;;;;;5109652;27;20631;-75
2023/02/16 13:38:49;;;;;;;262.00;86.10;;;;;;;;;;5097715;28;20248;-74
2023/02/16 13:41:33;;;;;;;258.90;84.20;;;;;;;;;;5113572;28;20213;-73
2023/02/16 13:44:04;;;;;;;270.25;88.30;;;;;;;;;;5132398;27;20264;-73
2023/02/16 13:46:33;;;;;;;285.00;89.28;;;;;;;;;;5120321;27;20287;-74
2023/02/16 13:49:03;;;;;;;260.13;85.03;;;;;;;;;;5131051;27;20629;-73
2023/02/16 13:51:48;;;;;;;272.90;90.57;;;;;;;;;;5122092;27;20262;-74
2023/02/16 13:54:26;;;;;;;255.25;81.43;;;;;;;;;;5117316;27;20238;-73
2023/02/16 13:57:07;;;;;;;248.48;84.18;;;;;;;;;;5133843;27;20639;-74
2023/02/16 14:00:04;;;;;;;214.07;74.68;;;;;;;;;;5116209;27;20205;-72
2023/02/16 14:02:53;;;;;;;262.27;89.47;;;;;;;;;;5117018;28;20225;-75
2023/02/16 14:05:27;;;;;;;274.17;87.57;;;;;;;;;;5108010;28;20216;-73
2023/02/16 14:08:16;;;;;;;195.95;68.65;;;;;;;;;;5118282;27;20270;-72
2023/02/16 14:11:05;;;;;;;257.67;83.80;;;;;;;;;;5118698;27;20294;-73
2023/02/16 14:13:35;;;;;;;195.00;65.65;;;;;;;;;;5133172;27;20214;-72
2023/02/16 14:16:07;;;;;;;270.55;94.10;;;;;;;;;;5116261;27;20211;-73
2023/02/16 14:18:39;;;;;;;278.08;91.85;;;;;;;;;;5119429;27;20204;-73
2023/02/16 14:21:17;;;;;;;186.32;64.75;;;;;;;;;;5108461;28;20215;-73
2023/02/16 14:23:47;;;;;;;265.25;90.80;;;;;;;;;;5103727;28;20559;-73
2023/02/16 14:26:19;;;;;;;272.98;88.47;;;;;;;;;;5105313;27;20581;-72
2023/02/16 14:29:06;;;;;;;281.95;92.25;;;;;;;;;;5105563;28;20252;-74
2023/02/16 14:31:41;;;;;;;273.08;88.15;;;;;;;;;;5105256;28;20213;-73
2023/02/16 14:34:15;;;;;;;263.25;89.22;;;;;;;;;;5104242;27;20569;-73
2023/02/16 14:36:57;;;;;;;293.50;86.88;;;;;;;;;;5099696;28;20200;-72
2023/02/16 14:39:33;;;;;;;272.42;94.55;;;;;;;;;;5100312;28;20223;-72
2023/02/16 14:42:07;;;;;;;267.05;87.80;;;;;;;;;;5100132;28;20213;-72
2023/02/16 14:44:42;;;;;;;189.65;71.00;;;;;;;;;;5105865;28;20907;-71
2023/02/16 14:47:18;;;;;;;263.40;90.93;;;;;;;;;;5106501;27;20245;-72
2023/02/16 14:49:54;;;;;;;194.70;67.82;;;;;;;;;;5099941;28;20247;-72
2023/02/16 14:52:45;;;;;;;198.50;72.28;;;;;;;;;;5103195;28;20212;-72
2023/02/16 14:55:27;;;;;;;203.30;68.10;;;;;;;;;;5097028;28;20213;-72
2023/02/16 14:57:59;;;;;;;276.40;90.47;;;;;;;;;;5102673;28;20231;-74
2023/02/16 15:00:40;;;;;;;269.35;88.28;;;;;;;;;;5102814;27;20215;-74
2023/02/16 15:06:32;;;;;;;223.20;74.53;;;;;;;;;;5096385;28;20607;-73
2023/02/16 15:09:08;;;;;;;267.35;86.88;;;;;;;;;;5105779;28;20722;-73
2023/02/16 15:14:34;;;;;;;258.20;87.95;;;;;;;;;;5102723;28;20212;-73
2023/02/16 15:20:11;;;;;;;267.80;86.70;;;;;;;;;;5101990;28;20204;-73
2023/02/16 15:23:20;;;;;;;201.23;73.38;;;;;;;;;;5103036;28;20225;-73
2023/02/16 15:26:01;;;;;;;277.40;87.57;;;;;;;;;;5094996;28;20630;-73
2023/02/16 15:28:38;;;;;;;262.80;86.60;;;;;;;;;;5109656;28;20228;-73
2023/02/16 15:31:08;;;;;;;268.10;90.95;;;;;;;;;;5097407;28;20323;-73
2023/02/16 15:39:56;;;;;;;272.30;88.45;;;;;;;;;;5104089;28;20203;-72
2023/02/16 15:42:36;;;;;;;258.83;83.63;;;;;;;;;;5103245;28;20212;-73
2023/02/16 15:45:25;;;;;;;279.50;91.40;;;;;;;;;;5116090;28;20238;-73
2023/02/16 15:51:32;;;;;;;284.83;94.90;;;;;;;;;;4988858;28;20239;-72
2023/02/16 15:54:17;;;;;;;207.07;72.00;;;;;;;;;;5033030;28;20304;-74
2023/02/16 15:57:16;;;;;;;;;;;;;;;;;;;;;
2023/02/16 15:59:47;;;;;;;268.00;88.00;;;;;;;;;;5105205;28;20235;-73
2023/02/16 16:02:26;;;;;;;260.80;84.75;;;;;;;;;;5104433;28;20290;-72
2023/02/16 16:05:35;;;;;;;257.90;83.40;;;;;;;;;;5106926;28;20760;-73
2023/02/16 16:08:17;;;;;;;192.98;66.35;;;;;;;;;;5106161;28;20474;-73
2023/02/16 16:17:09;;;;;;;194.25;69.07;;;;;;;;;;5115791;28;20215;-72
2023/02/16 16:19:38;;;;;;;257.77;83.57;;;;;;;;;;5051672;28;20554;-73
2023/02/16 16:22:34;;;;;;;194.32;67.40;;;;;;;;;;5098832;28;20729;-72
2023/02/16 16:25:43;;;;;;;201.90;66.32;;;;;;;;;;5098637;28;20228;-74
2023/02/16 16:34:32;;;;;;;198.07;65.32;;;;;;;;;;5081026;28;20710;-72
2023/02/16 16:37:05;;;;;;;255.68;85.00;;;;;;;;;;5098620;28;20230;-72
2023/02/16 16:46:23;;;;;;;260.35;81.80;;;;;;;;;;5017368;28;20241;-74
2023/02/16 16:48:55;;;;;;;248.10;83.00;;;;;;;;;;4919500;29;20242;-74
2023/02/16 16:51:38;;;;;;;254.85;85.25;;;;;;;;;;4997654;28;20301;-73
2023/02/16 16:54:07;;;;;;;247.85;82.50;;;;;;;;;;5057054;28;20592;-72
2023/02/16 16:56:37;;;;;;;260.48;87.18;;;;;;;;;;5112602;27;20207;-72
2023/02/16 16:59:06;;;;;;;207.90;68.68;;;;;;;;;;5114461;28;20797;-74
2023/02/16 17:01:34;;;;;;;243.70;80.10;;;;;;;;;;5097678;28;20262;-73
2023/02/16 17:04:02;;;;;;;189.95;68.40;;;;;;;;;;5097831;28;20224;-72
2023/02/16 17:06:35;;;;;;;253.30;83.63;;;;;;;;;;5114969;28;20219;-72
2023/02/16 17:09:03;;;;;;;184.00;63.20;;;;;;;;;;5118164;28;20251;-73
2023/02/16 17:11:33;;;;;;;272.95;85.65;;;;;;;;;;5110400;28;20218;-73
2023/02/16 17:14:06;;;;;;;188.43;65.40;;;;;;;;;;5118664;28;20607;-74
2023/02/16 17:16:51;;;;;;;255.85;82.32;;;;;;;;;;5119052;28;20244;-73
2023/02/16 17:19:23;;;;;;;241.15;79.70;;;;;;;;;;5117512;28;20207;-72
2023/02/16 17:21:52;;;;;;;260.10;84.63;;;;;;;;;;5116634;28;20263;-73
2023/02/16 17:24:24;;;;;;;258.55;88.80;;;;;;;;;;5108303;28;20216;-74